Terminal Aerodrome Forecast
Issued by NWS

Home | Current Version | Previous Version | Graphics & Text | Print | Product List | Glossary Off
Versions: 1 2 3 4 5 6 7 8 9 10 11 12

000
FTUS45 KGGW 281700
TAFSDY
TAF
KSDY 281723Z 2818/0118 30009KT P6SM VCSH BKN030
     FM282100 29010KT P6SM SCT050
     FM010600 27008KT P6SM VCSH BKN035
      AMD LTD TO CLD VIS AND WIND=

USA.gov is the U.S. government's official web portal to all federal, state and local government web resources and services.